sensor_id;sensor_type;location;lat;lon;timestamp;pressure;altitude;pressure_sealevel;temperature;humidity
38163;BME280;23977;53.078;18.248;2023-03-03T00:02:25;101803.44;;;-0.65;100.00
38163;BME280;23977;53.078;18.248;2023-03-03T00:04:51;101809.13;;;-0.56;100.00
38163;BME280;23977;53.078;18.248;2023-03-03T00:07:17;101763.81;;;-0.77;100.00
38163;BME280;23977;53.078;18.248;2023-03-03T00:09:48;101816.91;;;-0.54;100.00
38163;BME280;23977;53.078;18.248;2023-03-03T00:14:45;101759.38;;;-0.75;100.00
38163;BME280;23977;53.078;18.248;2023-03-03T00:17:24;101796.13;;;-0.57;100.00
38163;BME280;23977;53.078;18.248;2023-03-03T00:19:50;101741.56;;;-0.87;100.00
38163;BME280;23977;53.078;18.248;2023-03-03T00:22:29;101791.13;;;-0.41;100.00
38163;BME280;23977;53.078;18.248;2023-03-03T00:25:27;101774.25;;;-0.54;100.00
38163;BME280;23977;53.078;18.248;2023-03-03T00:27:53;101778.91;;;-0.83;100.00
38163;BME280;23977;53.078;18.248;2023-03-03T00:30:24;101749.97;;;-1.01;100.00
38163;BME280;23977;53.078;18.248;2023-03-03T00:32:51;101744.84;;;-0.82;100.00
38163;BME280;23977;53.078;18.248;2023-03-03T00:35:27;101778.59;;;-0.55;100.00
38163;BME280;23977;53.078;18.248;2023-03-03T00:37:59;101780.19;;;-0.51;100.00
38163;BME280;23977;53.078;18.248;2023-03-03T00:40:32;101773.88;;;-0.67;100.00
38163;BME280;23977;53.078;18.248;2023-03-03T00:43:00;101775.09;;;-0.54;100.00
38163;BME280;23977;53.078;18.248;2023-03-03T00:45:55;101760.09;;;-0.71;100.00
38163;BME280;23977;53.078;18.248;2023-03-03T00:50:49;101760.41;;;-0.79;100.00
38163;BME280;23977;53.078;18.248;2023-03-03T00:53:16;101764.00;;;-0.81;100.00
38163;BME280;23977;53.078;18.248;2023-03-03T00:55:43;101760.88;;;-0.69;100.00
38163;BME280;23977;53.078;18.248;2023-03-03T00:58:10;101752.31;;;-0.72;100.00
38163;BME280;23977;53.078;18.248;2023-03-03T01:00:36;101681.13;;;-1.22;100.00
38163;BME280;23977;53.078;18.248;2023-03-03T01:03:05;101748.25;;;-0.80;100.00
38163;BME280;23977;53.078;18.248;2023-03-03T01:05:32;101763.81;;;-0.77;100.00
38163;BME280;23977;53.078;18.248;2023-03-03T01:07:59;101756.88;;;-0.78;100.00
38163;BME280;23977;53.078;18.248;2023-03-03T01:10:26;101708.09;;;-0.99;100.00
38163;BME280;23977;53.078;18.248;2023-03-03T01:12:53;101763.59;;;-0.72;100.00
38163;BME280;23977;53.078;18.248;2023-03-03T01:15:19;101762.72;;;-0.93;100.00
38163;BME280;23977;53.078;18.248;2023-03-03T01:17:45;101716.41;;;-1.34;100.00
38163;BME280;23977;53.078;18.248;2023-03-03T01:20:13;101783.91;;;-0.79;100.00
38163;BME280;23977;53.078;18.248;2023-03-03T01:22:39;101767.44;;;-0.81;100.00
38163;BME280;23977;53.078;18.248;2023-03-03T01:25:05;101768.75;;;-0.91;100.00
38163;BME280;23977;53.078;18.248;2023-03-03T01:27:31;101770.25;;;-1.07;100.00
38163;BME280;23977;53.078;18.248;2023-03-03T01:29:58;101754.84;;;-0.91;100.00
38163;BME280;23977;53.078;18.248;2023-03-03T01:32:24;101752.00;;;-0.87;100.00
38163;BME280;23977;53.078;18.248;2023-03-03T01:34:50;101747.53;;;-1.05;100.00
38163;BME280;23977;53.078;18.248;2023-03-03T01:37:17;101765.03;;;-0.85;100.00
38163;BME280;23977;53.078;18.248;2023-03-03T01:39:47;101758.59;;;-0.77;100.00
38163;BME280;23977;53.078;18.248;2023-03-03T01:42:12;101679.91;;;-1.35;100.00
38163;BME280;23977;53.078;18.248;2023-03-03T01:44:40;101736.16;;;-1.04;100.00
38163;BME280;23977;53.078;18.248;2023-03-03T01:52:42;101739.13;;;-0.69;100.00
38163;BME280;23977;53.078;18.248;2023-03-03T01:55:17;101752.13;;;-0.90;100.00
38163;BME280;23977;53.078;18.248;2023-03-03T01:57:47;101748.66;;;-0.68;100.00
38163;BME280;23977;53.078;18.248;2023-03-03T02:00:15;101696.88;;;-0.81;100.00
38163;BME280;23977;53.078;18.248;2023-03-03T02:02:42;101732.06;;;-0.67;100.00
38163;BME280;23977;53.078;18.248;2023-03-03T02:05:09;101570.56;;;-1.87;100.00
38163;BME280;23977;53.078;18.248;2023-03-03T02:07:35;101744.38;;;-0.91;100.00
38163;BME280;23977;53.078;18.248;2023-03-03T02:10:12;101724.19;;;-0.88;100.00
38163;BME280;23977;53.078;18.248;2023-03-03T02:12:42;101740.31;;;-0.56;100.00
38163;BME280;23977;53.078;18.248;2023-03-03T02:15:25;101737.94;;;-0.62;100.00
38163;BME280;23977;53.078;18.248;2023-03-03T02:17:55;101713.47;;;-0.82;100.00
38163;BME280;23977;53.078;18.248;2023-03-03T02:28:20;101721.25;;;-0.80;100.00
38163;BME280;23977;53.078;18.248;2023-03-03T02:30:46;101667.66;;;-1.11;100.00
38163;BME280;23977;53.078;18.248;2023-03-03T02:33:12;101680.91;;;-1.38;100.00
38163;BME280;23977;53.078;18.248;2023-03-03T02:35:39;101722.00;;;-0.77;100.00
38163;BME280;23977;53.078;18.248;2023-03-03T02:38:17;101689.81;;;-0.99;100.00
38163;BME280;23977;53.078;18.248;2023-03-03T02:41:18;101711.31;;;-0.93;100.00
38163;BME280;23977;53.078;18.248;2023-03-03T02:43:52;101680.97;;;-0.97;100.00
38163;BME280;23977;53.078;18.248;2023-03-03T02:46:20;101579.44;;;-1.69;100.00
38163;BME280;23977;53.078;18.248;2023-03-03T02:48:45;101644.16;;;-1.33;100.00
38163;BME280;23977;53.078;18.248;2023-03-03T02:51:11;101667.72;;;-1.13;100.00
38163;BME280;23977;53.078;18.248;2023-03-03T02:53:37;101642.03;;;-1.45;100.00
38163;BME280;23977;53.078;18.248;2023-03-03T02:56:03;101646.97;;;-1.38;100.00
38163;BME280;23977;53.078;18.248;2023-03-03T02:58:29;101655.34;;;-1.29;100.00
38163;BME280;23977;53.078;18.248;2023-03-03T03:00:55;101650.94;;;-1.29;100.00
38163;BME280;23977;53.078;18.248;2023-03-03T03:03:21;101652.78;;;-1.31;100.00
38163;BME280;23977;53.078;18.248;2023-03-03T03:05:47;101689.56;;;-0.93;100.00
38163;BME280;23977;53.078;18.248;2023-03-03T03:08:13;101688.69;;;-0.94;100.00
38163;BME280;23977;53.078;18.248;2023-03-03T03:10:38;101690.16;;;-0.86;100.00
38163;BME280;23977;53.078;18.248;2023-03-03T03:13:04;101664.44;;;-1.18;100.00
38163;BME280;23977;53.078;18.248;2023-03-03T03:15:30;101682.63;;;-0.94;100.00
38163;BME280;23977;53.078;18.248;2023-03-03T03:17:55;101669.88;;;-1.02;100.00
38163;BME280;23977;53.078;18.248;2023-03-03T03:20:21;101601.47;;;-1.54;100.00
38163;BME280;23977;53.078;18.248;2023-03-03T03:22:47;101639.59;;;-1.28;100.00
38163;BME280;23977;53.078;18.248;2023-03-03T03:25:12;101674.25;;;-1.02;100.00
38163;BME280;23977;53.078;18.248;2023-03-03T03:27:38;101635.22;;;-1.27;100.00
38163;BME280;23977;53.078;18.248;2023-03-03T03:30:04;101680.06;;;-0.96;100.00
38163;BME280;23977;53.078;18.248;2023-03-03T03:32:30;101661.03;;;-1.20;100.00
38163;BME280;23977;53.078;18.248;2023-03-03T03:34:56;101672.41;;;-1.00;100.00
38163;BME280;23977;53.078;18.248;2023-03-03T03:37:21;101669.16;;;-1.05;100.00
38163;BME280;23977;53.078;18.248;2023-03-03T03:39:47;101658.97;;;-1.12;100.00
38163;BME280;23977;53.078;18.248;2023-03-03T03:42:13;101646.03;;;-1.15;100.00
38163;BME280;23977;53.078;18.248;2023-03-03T03:44:39;101552.56;;;-1.71;100.00
38163;BME280;23977;53.078;18.248;2023-03-03T03:47:04;101664.84;;;-1.06;100.00
38163;BME280;23977;53.078;18.248;2023-03-03T03:49:30;101595.47;;;-1.56;100.00
38163;BME280;23977;53.078;18.248;2023-03-03T03:51:56;101638.31;;;-1.18;100.00
38163;BME280;23977;53.078;18.248;2023-03-03T03:54:22;101664.19;;;-1.12;100.00
38163;BME280;23977;53.078;18.248;2023-03-03T03:56:47;101664.56;;;-1.21;100.00
38163;BME280;23977;53.078;18.248;2023-03-03T03:59:13;101667.47;;;-1.06;100.00
38163;BME280;23977;53.078;18.248;2023-03-03T04:01:39;101641.34;;;-1.28;100.00
38163;BME280;23977;53.078;18.248;2023-03-03T04:04:04;101629.03;;;-1.25;100.00
38163;BME280;23977;53.078;18.248;2023-03-03T04:06:30;101654.06;;;-1.19;100.00
38163;BME280;23977;53.078;18.248;2023-03-03T04:08:56;101662.50;;;-1.13;100.00
38163;BME280;23977;53.078;18.248;2023-03-03T04:11:22;101568.16;;;-1.47;100.00
38163;BME280;23977;53.078;18.248;2023-03-03T04:13:48;101616.41;;;-1.36;100.00
38163;BME280;23977;53.078;18.248;2023-03-03T04:16:13;101629.34;;;-1.33;100.00
38163;BME280;23977;53.078;18.248;2023-03-03T04:18:41;101685.34;;;-1.18;100.00
38163;BME280;23977;53.078;18.248;2023-03-03T04:21:11;101622.31;;;-1.53;100.00
38163;BME280;23977;53.078;18.248;2023-03-03T04:23:37;101631.06;;;-1.32;100.00
38163;BME280;23977;53.078;18.248;2023-03-03T04:26:03;101679.84;;;-0.89;100.00
38163;BME280;23977;53.078;18.248;2023-03-03T04:28:29;101674.44;;;-0.85;100.00
38163;BME280;23977;53.078;18.248;2023-03-03T04:30:54;101680.00;;;-0.94;100.00
38163;BME280;23977;53.078;18.248;2023-03-03T04:33:20;101657.38;;;-1.16;100.00
38163;BME280;23977;53.078;18.248;2023-03-03T04:35:46;101640.34;;;-1.24;100.00
38163;BME280;23977;53.078;18.248;2023-03-03T04:38:11;101702.44;;;-1.10;100.00
38163;BME280;23977;53.078;18.248;2023-03-03T04:40:39;101682.78;;;-1.19;100.00
38163;BME280;23977;53.078;18.248;2023-03-03T04:43:05;101634.31;;;-1.26;100.00
38163;BME280;23977;53.078;18.248;2023-03-03T04:45:31;101685.94;;;-1.11;100.00
38163;BME280;23977;53.078;18.248;2023-03-03T04:47:57;101697.22;;;-1.10;100.00
38163;BME280;23977;53.078;18.248;2023-03-03T04:50:22;101626.75;;;-1.12;100.00
38163;BME280;23977;53.078;18.248;2023-03-03T04:52:48;101539.59;;;-1.95;100.00
38163;BME280;23977;53.078;18.248;2023-03-03T04:55:14;101671.81;;;-0.85;100.00
38163;BME280;23977;53.078;18.248;2023-03-03T04:57:41;101684.66;;;-0.80;100.00
38163;BME280;23977;53.078;18.248;2023-03-03T05:00:08;101685.78;;;-0.86;100.00
38163;BME280;23977;53.078;18.248;2023-03-03T05:02:37;101676.75;;;-0.79;100.00
38163;BME280;23977;53.078;18.248;2023-03-03T05:05:03;101572.84;;;-1.35;100.00
38163;BME280;23977;53.078;18.248;2023-03-03T05:07:28;101640.28;;;-1.23;100.00
38163;BME280;23977;53.078;18.248;2023-03-03T05:09:54;101651.03;;;-1.10;100.00
38163;BME280;23977;53.078;18.248;2023-03-03T05:12:20;101685.91;;;-0.89;100.00
38163;BME280;23977;53.078;18.248;2023-03-03T05:14:45;101651.13;;;-1.12;100.00
38163;BME280;23977;53.078;18.248;2023-03-03T05:17:11;101687.75;;;-0.70;100.00
38163;BME280;23977;53.078;18.248;2023-03-03T05:19:36;101673.50;;;-0.84;100.00
38163;BME280;23977;53.078;18.248;2023-03-03T05:22:02;101655.00;;;-1.00;100.00
38163;BME280;23977;53.078;18.248;2023-03-03T05:24:28;101684.06;;;-0.87;100.00
38163;BME280;23977;53.078;18.248;2023-03-03T05:26:54;101652.75;;;-1.09;100.00
38163;BME280;23977;53.078;18.248;2023-03-03T05:29:19;101648.53;;;-1.12;100.00
38163;BME280;23977;53.078;18.248;2023-03-03T05:31:45;101676.03;;;-0.82;100.00
38163;BME280;23977;53.078;18.248;2023-03-03T05:34:11;101591.66;;;-1.27;100.00
38163;BME280;23977;53.078;18.248;2023-03-03T05:36:36;101617.91;;;-1.08;100.00
38163;BME280;23977;53.078;18.248;2023-03-03T05:39:02;101662.13;;;-0.83;100.00
38163;BME280;23977;53.078;18.248;2023-03-03T05:41:28;101644.09;;;-0.89;100.00
38163;BME280;23977;53.078;18.248;2023-03-03T05:43:54;101615.06;;;-1.03;100.00
38163;BME280;23977;53.078;18.248;2023-03-03T05:46:20;101638.50;;;-0.80;100.00
38163;BME280;23977;53.078;18.248;2023-03-03T05:48:45;101601.56;;;-1.13;100.00
38163;BME280;23977;53.078;18.248;2023-03-03T05:51:11;101612.41;;;-1.02;100.00
38163;BME280;23977;53.078;18.248;2023-03-03T05:53:37;101579.25;;;-1.00;100.00
38163;BME280;23977;53.078;18.248;2023-03-03T05:56:03;101603.00;;;-0.85;100.00
38163;BME280;23977;53.078;18.248;2023-03-03T05:58:29;101656.53;;;-0.53;100.00
38163;BME280;23977;53.078;18.248;2023-03-03T06:00:55;101596.34;;;-0.93;100.00
38163;BME280;23977;53.078;18.248;2023-03-03T06:03:20;101660.06;;;-0.75;100.00
38163;BME280;23977;53.078;18.248;2023-03-03T06:05:46;101625.13;;;-0.73;100.00
38163;BME280;23977;53.078;18.248;2023-03-03T06:08:12;101663.31;;;-0.49;100.00
38163;BME280;23977;53.078;18.248;2023-03-03T06:10:38;101610.19;;;-0.90;100.00
38163;BME280;23977;53.078;18.248;2023-03-03T06:13:03;101684.22;;;-0.49;100.00
38163;BME280;23977;53.078;18.248;2023-03-03T06:15:29;101654.81;;;-0.54;100.00
38163;BME280;23977;53.078;18.248;2023-03-03T06:17:55;101680.63;;;-0.26;100.00
38163;BME280;23977;53.078;18.248;2023-03-03T06:20:20;101643.97;;;-0.45;100.00
38163;BME280;23977;53.078;18.248;2023-03-03T06:22:46;101651.25;;;-0.32;100.00
38163;BME280;23977;53.078;18.248;2023-03-03T06:25:12;101643.22;;;-0.28;100.00
38163;BME280;23977;53.078;18.248;2023-03-03T06:27:38;101631.53;;;-0.40;100.00
38163;BME280;23977;53.078;18.248;2023-03-03T06:30:04;101674.16;;;0.02;100.00
38163;BME280;23977;53.078;18.248;2023-03-03T06:32:30;101613.16;;;-0.38;100.00
38163;BME280;23977;53.078;18.248;2023-03-03T06:34:56;101677.25;;;-0.09;100.00
38163;BME280;23977;53.078;18.248;2023-03-03T06:37:22;101673.91;;;-0.12;100.00
38163;BME280;23977;53.078;18.248;2023-03-03T06:39:48;101628.38;;;-0.27;100.00
38163;BME280;23977;53.078;18.248;2023-03-03T06:42:13;101672.50;;;-0.01;100.00
38163;BME280;23977;53.078;18.248;2023-03-03T06:44:39;101660.38;;;0.17;100.00
38163;BME280;23977;53.078;18.248;2023-03-03T06:47:05;101673.19;;;0.24;100.00
38163;BME280;23977;53.078;18.248;2023-03-03T06:49:31;101638.50;;;-0.01;100.00
38163;BME280;23977;53.078;18.248;2023-03-03T06:51:58;101684.50;;;0.24;100.00
38163;BME280;23977;53.078;18.248;2023-03-03T06:54:28;101691.22;;;0.30;100.00
38163;BME280;23977;53.078;18.248;2023-03-03T06:56:58;101692.41;;;0.23;100.00
38163;BME280;23977;53.078;18.248;2023-03-03T06:59:26;101670.91;;;-0.03;100.00
38163;BME280;23977;53.078;18.248;2023-03-03T07:01:53;101687.88;;;0.26;100.00
38163;BME280;23977;53.078;18.248;2023-03-03T07:04:28;101712.25;;;0.47;100.00
38163;BME280;23977;53.078;18.248;2023-03-03T07:07:16;101692.03;;;-0.08;100.00
38163;BME280;23977;53.078;18.248;2023-03-03T07:09:45;101673.47;;;-0.02;100.00
38163;BME280;23977;53.078;18.248;2023-03-03T07:12:19;101641.19;;;-0.21;100.00
38163;BME280;23977;53.078;18.248;2023-03-03T07:15:00;101719.59;;;0.20;100.00
38163;BME280;23977;53.078;18.248;2023-03-03T07:17:30;101638.19;;;-0.32;100.00
38163;BME280;23977;53.078;18.248;2023-03-03T07:19:56;101693.97;;;0.08;100.00
38163;BME280;23977;53.078;18.248;2023-03-03T07:22:24;101728.72;;;0.30;100.00
38163;BME280;23977;53.078;18.248;2023-03-03T07:24:53;101727.13;;;0.47;100.00
38163;BME280;23977;53.078;18.248;2023-03-03T07:27:26;101728.44;;;0.36;100.00
38163;BME280;23977;53.078;18.248;2023-03-03T07:29:58;101720.56;;;0.17;100.00
38163;BME280;23977;53.078;18.248;2023-03-03T07:32:39;101697.34;;;0.10;100.00
38163;BME280;23977;53.078;18.248;2023-03-03T07:35:36;101740.78;;;0.53;100.00
38163;BME280;23977;53.078;18.248;2023-03-03T07:40:59;101728.78;;;0.48;100.00
38163;BME280;23977;53.078;18.248;2023-03-03T07:48:38;101755.56;;;0.35;100.00
38163;BME280;23977;53.078;18.248;2023-03-03T07:51:24;101762.56;;;0.54;100.00
38163;BME280;23977;53.078;18.248;2023-03-03T07:53:53;101758.03;;;0.58;100.00
38163;BME280;23977;53.078;18.248;2023-03-03T07:56:29;101752.44;;;0.65;100.00
38163;BME280;23977;53.078;18.248;2023-03-03T07:58:58;101717.75;;;0.41;100.00
38163;BME280;23977;53.078;18.248;2023-03-03T08:01:34;101752.00;;;0.74;100.00
38163;BME280;23977;53.078;18.248;2023-03-03T08:04:28;101754.63;;;0.74;100.00
38163;BME280;23977;53.078;18.248;2023-03-03T08:07:02;101750.94;;;0.60;100.00
38163;BME280;23977;53.078;18.248;2023-03-03T08:14:35;101726.00;;;0.70;100.00
38163;BME280;23977;53.078;18.248;2023-03-03T08:17:12;101740.69;;;0.74;100.00
38163;BME280;23977;53.078;18.248;2023-03-03T08:19:39;101725.63;;;0.60;100.00
38163;BME280;23977;53.078;18.248;2023-03-03T08:22:12;101768.44;;;0.97;100.00
38163;BME280;23977;53.078;18.248;2023-03-03T08:24:39;101744.63;;;0.83;100.00
38163;BME280;23977;53.078;18.248;2023-03-03T08:27:05;101775.06;;;1.04;100.00
38163;BME280;23977;53.078;18.248;2023-03-03T08:29:30;101741.81;;;0.87;100.00
38163;BME280;23977;53.078;18.248;2023-03-03T08:31:56;101728.81;;;0.67;100.00
38163;BME280;23977;53.078;18.248;2023-03-03T08:34:22;101715.19;;;0.78;100.00
38163;BME280;23977;53.078;18.248;2023-03-03T08:36:47;101721.22;;;0.61;100.00
38163;BME280;23977;53.078;18.248;2023-03-03T08:39:14;101766.00;;;0.92;100.00
38163;BME280;23977;53.078;18.248;2023-03-03T08:41:40;101717.88;;;0.76;100.00
38163;BME280;23977;53.078;18.248;2023-03-03T08:44:08;101720.28;;;0.81;100.00
38163;BME280;23977;53.078;18.248;2023-03-03T08:46:35;101744.97;;;0.94;100.00
38163;BME280;23977;53.078;18.248;2023-03-03T08:49:03;101747.94;;;1.23;100.00
38163;BME280;23977;53.078;18.248;2023-03-03T08:51:29;101763.53;;;1.26;100.00
38163;BME280;23977;53.078;18.248;2023-03-03T08:53:55;101647.03;;;0.41;100.00
38163;BME280;23977;53.078;18.248;2023-03-03T08:56:20;101763.28;;;1.13;100.00
38163;BME280;23977;53.078;18.248;2023-03-03T08:58:46;101760.34;;;1.38;100.00
38163;BME280;23977;53.078;18.248;2023-03-03T09:01:15;101761.69;;;1.63;100.00
38163;BME280;23977;53.078;18.248;2023-03-03T09:03:42;101765.97;;;1.65;100.00
38163;BME280;23977;53.078;18.248;2023-03-03T09:06:08;101765.09;;;2.00;100.00
38163;BME280;23977;53.078;18.248;2023-03-03T09:08:34;101714.56;;;1.95;100.00
38163;BME280;23977;53.078;18.248;2023-03-03T09:11:02;101736.00;;;2.20;100.00
38163;BME280;23977;53.078;18.248;2023-03-03T09:13:29;101742.56;;;2.45;100.00
38163;BME280;23977;53.078;18.248;2023-03-03T09:15:57;101748.91;;;3.05;100.00
38163;BME280;23977;53.078;18.248;2023-03-03T09:18:31;101702.63;;;2.86;100.00
38163;BME280;23977;53.078;18.248;2023-03-03T09:21:00;101730.50;;;3.05;100.00
38163;BME280;23977;53.078;18.248;2023-03-03T09:26:01;101732.97;;;3.68;98.55
38163;BME280;23977;53.078;18.248;2023-03-03T09:28:33;101679.53;;;3.52;95.83
38163;BME280;23977;53.078;18.248;2023-03-03T09:31:01;101725.66;;;4.02;95.55
38163;BME280;23977;53.078;18.248;2023-03-03T09:33:39;101724.44;;;4.08;95.53
38163;BME280;23977;53.078;18.248;2023-03-03T09:36:28;101716.38;;;4.53;91.54
38163;BME280;23977;53.078;18.248;2023-03-03T09:38:56;101691.47;;;4.30;90.98
38163;BME280;23977;53.078;18.248;2023-03-03T09:53:18;101685.47;;;4.69;88.09
38163;BME280;23977;53.078;18.248;2023-03-03T09:55:57;101706.56;;;4.69;88.30
38163;BME280;23977;53.078;18.248;2023-03-03T09:58:38;101715.56;;;4.79;88.30
38163;BME280;23977;53.078;18.248;2023-03-03T10:12:21;101707.22;;;5.00;85.01
38163;BME280;23977;53.078;18.248;2023-03-03T10:15:14;101694.28;;;4.82;85.57
38163;BME280;23977;53.078;18.248;2023-03-03T10:17:51;101695.47;;;4.64;87.22
38163;BME280;23977;53.078;18.248;2023-03-03T10:22:52;101694.19;;;4.57;87.08
38163;BME280;23977;53.078;18.248;2023-03-03T10:25:39;101684.53;;;4.43;88.83
38163;BME280;23977;53.078;18.248;2023-03-03T10:36:52;101691.00;;;4.52;89.78
38163;BME280;23977;53.078;18.248;2023-03-03T10:39:40;101699.97;;;4.76;88.84
38163;BME280;23977;53.078;18.248;2023-03-03T10:58:41;101672.56;;;4.37;88.38
38163;BME280;23977;53.078;18.248;2023-03-03T11:01:28;101704.13;;;4.66;88.72
38163;BME280;23977;53.078;18.248;2023-03-03T11:09:51;101653.00;;;4.27;87.43
38163;BME280;23977;53.078;18.248;2023-03-03T11:15:33;101647.72;;;4.41;88.13
38163;BME280;23977;53.078;18.248;2023-03-03T11:18:23;101661.44;;;4.47;87.93
38163;BME280;23977;53.078;18.248;2023-03-03T11:21:11;101669.72;;;4.40;88.16
38163;BME280;23977;53.078;18.248;2023-03-03T11:37:05;101665.00;;;4.60;87.73
38163;BME280;23977;53.078;18.248;2023-03-03T11:39:33;101639.81;;;4.69;88.37
38163;BME280;23977;53.078;18.248;2023-03-03T11:42:06;101669.34;;;4.74;87.43
38163;BME280;23977;53.078;18.248;2023-03-03T11:44:48;101617.56;;;4.45;87.99
38163;BME280;23977;53.078;18.248;2023-03-03T11:47:25;101568.63;;;4.14;88.24
38163;BME280;23977;53.078;18.248;2023-03-03T11:50:02;101628.53;;;4.67;86.71
38163;BME280;23977;53.078;18.248;2023-03-03T11:52:58;101628.31;;;4.42;88.12
38163;BME280;23977;53.078;18.248;2023-03-03T11:55:38;101645.03;;;4.56;88.88
38163;BME280;23977;53.078;18.248;2023-03-03T11:58:33;101656.03;;;4.90;87.87
38163;BME280;23977;53.078;18.248;2023-03-03T12:25:44;101640.63;;;4.69;88.41
38163;BME280;23977;53.078;18.248;2023-03-03T12:34:10;101625.63;;;4.57;90.02
38163;BME280;23977;53.078;18.248;2023-03-03T12:37:13;101612.19;;;4.74;89.43
38163;BME280;23977;53.078;18.248;2023-03-03T12:40:33;101628.78;;;4.76;87.76
38163;BME280;23977;53.078;18.248;2023-03-03T12:43:06;101617.88;;;4.81;89.27
38163;BME280;23977;53.078;18.248;2023-03-03T12:45:53;101602.75;;;4.85;88.36
38163;BME280;23977;53.078;18.248;2023-03-03T12:48:40;101622.72;;;4.74;86.46
38163;BME280;23977;53.078;18.248;2023-03-03T12:54:26;101632.09;;;5.06;86.21
38163;BME280;23977;53.078;18.248;2023-03-03T12:56:59;101619.00;;;5.04;85.58
38163;BME280;23977;53.078;18.248;2023-03-03T13:05:01;101549.91;;;4.59;86.17
38163;BME280;23977;53.078;18.248;2023-03-03T13:07:47;101611.00;;;5.06;86.03
38163;BME280;23977;53.078;18.248;2023-03-03T13:12:54;101605.72;;;5.06;87.31
38163;BME280;23977;53.078;18.248;2023-03-03T13:18:52;101593.78;;;5.00;85.79
38163;BME280;23977;53.078;18.248;2023-03-03T13:21:45;101606.16;;;5.12;85.15
38163;BME280;23977;53.078;18.248;2023-03-03T13:26:55;101589.38;;;5.13;84.41
38163;BME280;23977;53.078;18.248;2023-03-03T13:29:36;101591.06;;;5.02;85.58
38163;BME280;23977;53.078;18.248;2023-03-03T13:32:16;101582.59;;;5.09;84.89
38163;BME280;23977;53.078;18.248;2023-03-03T13:39:52;101586.13;;;4.42;88.60
38163;BME280;23977;53.078;18.248;2023-03-03T13:50:46;101578.16;;;4.97;85.98
38163;BME280;23977;53.078;18.248;2023-03-03T13:56:38;101564.13;;;5.09;84.92
38163;BME280;23977;53.078;18.248;2023-03-03T13:59:23;101573.44;;;5.15;84.45
38163;BME280;23977;53.078;18.248;2023-03-03T14:05:01;101552.97;;;5.18;84.20
38163;BME280;23977;53.078;18.248;2023-03-03T14:10:10;101565.31;;;5.18;83.37
38163;BME280;23977;53.078;18.248;2023-03-03T14:13:05;101559.69;;;5.23;83.36
38163;BME280;23977;53.078;18.248;2023-03-03T14:18:23;101566.56;;;5.12;83.07
38163;BME280;23977;53.078;18.248;2023-03-03T14:20:57;101527.84;;;5.00;83.34
38163;BME280;23977;53.078;18.248;2023-03-03T14:23:27;101542.41;;;5.18;82.39
38163;BME280;23977;53.078;18.248;2023-03-03T14:28:22;101546.09;;;5.29;82.44
38163;BME280;23977;53.078;18.248;2023-03-03T14:30:52;101527.72;;;5.27;80.88
38163;BME280;23977;53.078;18.248;2023-03-03T14:33:20;101517.81;;;5.18;80.35
38163;BME280;23977;53.078;18.248;2023-03-03T14:38:36;101528.69;;;5.13;80.97
38163;BME280;23977;53.078;18.248;2023-03-03T14:41:37;101521.50;;;5.03;81.16
38163;BME280;23977;53.078;18.248;2023-03-03T14:46:45;101525.06;;;4.76;82.62
38163;BME280;23977;53.078;18.248;2023-03-03T14:49:28;101494.63;;;4.32;83.46
38163;BME280;23977;53.078;18.248;2023-03-03T14:52:01;101523.44;;;4.20;85.58
38163;BME280;23977;53.078;18.248;2023-03-03T14:54:33;101521.09;;;4.16;86.46
38163;BME280;23977;53.078;18.248;2023-03-03T15:00:03;101517.22;;;3.94;88.16
38163;BME280;23977;53.078;18.248;2023-03-03T15:05:29;101496.00;;;3.83;89.36
38163;BME280;23977;53.078;18.248;2023-03-03T15:10:42;101498.06;;;3.78;90.22
38163;BME280;23977;53.078;18.248;2023-03-03T15:16:01;101499.03;;;3.77;89.39
38163;BME280;23977;53.078;18.248;2023-03-03T15:18:30;101480.06;;;3.72;90.19
38163;BME280;23977;53.078;18.248;2023-03-03T15:23:52;101490.53;;;3.86;90.02
38163;BME280;23977;53.078;18.248;2023-03-03T15:26:29;101484.09;;;3.77;90.89
38163;BME280;23977;53.078;18.248;2023-03-03T15:29:26;101479.06;;;3.87;89.87
38163;BME280;23977;53.078;18.248;2023-03-03T15:32:18;101482.16;;;3.66;90.64
38163;BME280;23977;53.078;18.248;2023-03-03T15:38:08;101492.69;;;3.38;92.50
38163;BME280;23977;53.078;18.248;2023-03-03T15:40:45;101490.28;;;3.20;93.58
38163;BME280;23977;53.078;18.248;2023-03-03T15:43:39;101406.88;;;2.79;94.19
38163;BME280;23977;53.078;18.248;2023-03-03T15:55:15;101483.59;;;3.00;96.98
38163;BME280;23977;53.078;18.248;2023-03-03T16:03:35;101406.25;;;2.31;99.53
38163;BME280;23977;53.078;18.248;2023-03-03T16:08:46;101455.47;;;2.57;100.00
38163;BME280;23977;53.078;18.248;2023-03-03T16:11:21;101458.06;;;2.43;100.00
38163;BME280;23977;53.078;18.248;2023-03-03T16:14:41;101399.69;;;1.93;100.00
38163;BME280;23977;53.078;18.248;2023-03-03T16:22:23;101453.72;;;2.28;100.00
38163;BME280;23977;53.078;18.248;2023-03-03T16:38:49;101390.53;;;1.38;100.00
38163;BME280;23977;53.078;18.248;2023-03-03T16:41:52;101420.19;;;1.55;100.00
38163;BME280;23977;53.078;18.248;2023-03-03T16:44:35;101455.41;;;1.51;100.00
38163;BME280;23977;53.078;18.248;2023-03-03T16:50:12;101460.34;;;1.57;100.00
38163;BME280;23977;53.078;18.248;2023-03-03T16:53:00;101407.25;;;1.04;100.00
38163;BME280;23977;53.078;18.248;2023-03-03T16:58:12;101454.22;;;1.24;100.00
38163;BME280;23977;53.078;18.248;2023-03-03T17:06:52;101444.38;;;1.12;100.00
38163;BME280;23977;53.078;18.248;2023-03-03T17:09:22;101457.84;;;1.22;100.00
38163;BME280;23977;53.078;18.248;2023-03-03T17:18:04;101447.84;;;1.13;100.00
38163;BME280;23977;53.078;18.248;2023-03-03T17:23:28;101424.13;;;0.98;100.00